createdAt,value
2017-12-27T00:00:18.940Z,0.6
2017-12-27T00:02:18.692Z,0.3
2017-12-27T00:04:19.453Z,0.5
2017-12-27T00:06:18.902Z,0.3
2017-12-27T00:08:18.641Z,0.3
2017-12-27T00:10:18.885Z,0.5
2017-12-27T00:12:18.642Z,0.4
2017-12-27T00:14:19.369Z,0.4
2017-12-27T00:16:19.373Z,0.4
2017-12-27T00:18:19.190Z,0.4
2017-12-27T00:20:18.952Z,0.3
2017-12-27T00:22:18.704Z,0.6
2017-12-27T00:24:19.445Z,0.3
2017-12-27T00:26:18.997Z,0.5
2017-12-27T00:28:18.751Z,0.3
2017-12-27T00:30:18.618Z,0.5
2017-12-27T00:32:19.354Z,0.3
2017-12-27T00:34:19.090Z,0.3
2017-12-27T00:36:18.577Z,0.4
2017-12-27T00:38:19.312Z,0.3
2017-12-27T00:40:18.524Z,0.3
2017-12-27T00:42:19.250Z,0.4
2017-12-27T00:44:19.021Z,0.3
2017-12-27T00:46:19.175Z,0.3
2017-12-27T00:48:18.900Z,0.3
2017-12-27T00:50:18.660Z,0.3
2017-12-27T00:52:19.272Z,0.3
2017-12-27T00:54:18.998Z,0.7
2017-12-27T00:56:18.612Z,0.4
2017-12-27T00:58:19.335Z,0.3
2017-12-27T01:00:19.138Z,0.4
2017-12-27T01:02:18.857Z,0.4
2017-12-27T01:04:18.553Z,0.4
2017-12-27T01:06:18.568Z,0.3
2017-12-27T01:08:19.339Z,0.6
2017-12-27T01:10:18.535Z,0.4
2017-12-27T01:12:19.247Z,0.5
2017-12-27T01:14:18.967Z,0.3
2017-12-27T01:16:18.599Z,0.3
2017-12-27T01:18:19.404Z,0.4
2017-12-27T01:20:19.125Z,0.3
2017-12-27T01:22:18.841Z,0.6
2017-12-27T01:24:18.599Z,0.4
2017-12-27T01:26:18.970Z,0.5
2017-12-27T01:28:18.681Z,0.3
2017-12-27T01:30:19.529Z,0.4
2017-12-27T01:32:19.278Z,0.6
2017-12-27T01:34:19.005Z,0.5
2017-12-27T01:36:19.045Z,0.4
2017-12-27T01:38:18.754Z,0.5
2017-12-27T01:40:18.974Z,0.3
2017-12-27T01:42:18.728Z,0.4
2017-12-27T01:44:19.434Z,0.5
2017-12-27T01:46:18.957Z,0.3
2017-12-27T01:48:18.708Z,0.5
2017-12-27T01:50:19.461Z,0.6
2017-12-27T01:52:19.193Z,0.5
2017-12-27T01:54:18.962Z,0.5
2017-12-27T01:56:18.983Z,0.4
2017-12-27T01:58:18.708Z,0.6
2017-12-27T02:00:19.466Z,0.5
2017-12-27T02:02:19.199Z,0.6
2017-12-27T02:04:18.969Z,0.5
2017-12-27T02:06:18.984Z,0.4
2017-12-27T02:08:18.734Z,0.4
2017-12-27T02:10:18.946Z,0.4
2017-12-27T02:12:18.672Z,0.7
2017-12-27T02:14:19.402Z,0.4
2017-12-27T02:16:18.863Z,0.6
2017-12-27T02:18:18.705Z,0.6
2017-12-27T02:20:19.454Z,0.3
2017-12-27T02:22:19.167Z,0.4
2017-12-27T02:24:18.899Z,0.6
2017-12-27T02:26:19.375Z,0.6
2017-12-27T02:28:19.091Z,0.4
2017-12-27T02:30:18.827Z,0.4
2017-12-27T02:32:18.576Z,0.5
2017-12-27T02:34:19.344Z,0.4
2017-12-27T02:36:18.806Z,0.2
2017-12-27T02:38:18.537Z,0.5
2017-12-27T02:40:18.807Z,0.5
2017-12-27T02:42:18.578Z,0.7
2017-12-27T02:44:19.297Z,0.8
2017-12-27T02:46:19.277Z,0.8
2017-12-27T02:48:19.020Z,0.3
2017-12-27T02:50:18.768Z,0.8
2017-12-27T02:52:18.490Z,0.4
2017-12-27T02:54:19.234Z,0.6
2017-12-27T02:56:19.274Z,0.6
2017-12-27T02:58:18.991Z,0.5
2017-12-27T03:00:18.726Z,0.6
2017-12-27T03:02:18.492Z,0.5
2017-12-27T03:04:19.209Z,0.3
2017-12-27T03:06:19.277Z,0.7
2017-12-27T03:08:18.998Z,0.7
2017-12-27T03:10:19.249Z,0.5
2017-12-27T03:12:18.967Z,0.5
2017-12-27T03:14:18.668Z,0.4
2017-12-27T03:16:19.173Z,0.8
2017-12-27T03:18:18.959Z,0.5
2017-12-27T03:20:18.670Z,0.6
2017-12-27T03:22:19.426Z,0.5
2017-12-27T03:24:19.142Z,0.6
2017-12-27T03:26:18.688Z,0.4
2017-12-27T03:28:19.437Z,0.4
2017-12-27T03:30:19.149Z,0.6
2017-12-27T03:32:18.877Z,0.8
2017-12-27T03:34:18.627Z,0.7
2017-12-27T03:36:18.778Z,0.5
2017-12-27T03:38:18.515Z,0.5
2017-12-27T03:40:18.779Z,0.3
2017-12-27T03:42:18.487Z,0.7
2017-12-27T03:44:19.200Z,0.4
2017-12-27T03:46:18.871Z,0.6
2017-12-27T03:48:18.578Z,0.5
2017-12-27T03:50:19.287Z,0.6
2017-12-27T03:52:19.027Z,0.4
2017-12-27T03:54:18.784Z,0.6
2017-12-27T03:56:18.658Z,0.5
2017-12-27T03:58:19.378Z,0.5
2017-12-27T04:00:19.096Z,0.5
2017-12-27T04:02:18.827Z,0.7
2017-12-27T04:04:18.541Z,0.4
2017-12-27T04:06:18.824Z,0.6
2017-12-27T04:08:18.558Z,0.5
2017-12-27T04:10:18.798Z,0.5
2017-12-27T04:12:18.524Z,0.4
2017-12-27T04:14:19.276Z,0.4
2017-12-27T04:16:19.268Z,0.3
2017-12-27T04:18:19.078Z,0.5
2017-12-27T04:20:18.815Z,0.5
2017-12-27T04:22:18.513Z,0.7
2017-12-27T04:24:19.213Z,0.4
2017-12-27T04:26:18.752Z,0.6
2017-12-27T04:28:18.459Z,0.5
2017-12-27T04:30:19.235Z,0.3
2017-12-27T04:32:18.964Z,0.4
2017-12-27T04:34:18.667Z,0.7
2017-12-27T04:36:18.682Z,0.3
2017-12-27T04:38:19.408Z,0.3
2017-12-27T04:40:18.615Z,0.5
2017-12-27T04:42:19.369Z,0.4
2017-12-27T04:44:19.090Z,0.5
2017-12-27T04:46:19.070Z,0.3
2017-12-27T04:48:18.819Z,0.6
2017-12-27T04:50:18.543Z,0.4
2017-12-27T04:52:19.265Z,0.5
2017-12-27T04:54:19.011Z,0.8
2017-12-27T04:56:18.526Z,0.4
2017-12-27T04:58:19.241Z,0.5
2017-12-27T05:00:18.968Z,0.4
2017-12-27T05:02:18.652Z,0.9
2017-12-27T05:04:19.377Z,0.5
2017-12-27T05:06:18.944Z,0.6
2017-12-27T05:08:18.668Z,0.5
2017-12-27T05:10:18.900Z,0.7
2017-12-27T05:12:19.447Z,0.6
2017-12-27T05:14:19.186Z,0.3
2017-12-27T05:16:18.709Z,0.7
2017-12-27T05:18:18.511Z,0.3
2017-12-27T05:20:19.316Z,0.6
2017-12-27T05:22:19.069Z,0.7
2017-12-27T05:24:18.777Z,0.3
2017-12-27T05:26:18.870Z,0.5
2017-12-27T05:28:18.614Z,0.4
2017-12-27T05:30:19.316Z,0.5
2017-12-27T05:32:19.016Z,0.5
2017-12-27T05:34:18.748Z,0.2
2017-12-27T05:36:19.301Z,0.4
2017-12-27T05:38:19.035Z,0.5
2017-12-27T05:40:19.216Z,0.5
2017-12-27T05:42:18.934Z,0.4
2017-12-27T05:44:18.700Z,0.6
2017-12-27T05:46:18.850Z,0.5
2017-12-27T05:48:18.570Z,0.5
2017-12-27T05:50:19.299Z,0.7
2017-12-27T05:52:19.006Z,0.9
2017-12-27T05:54:18.714Z,0.5
2017-12-27T05:56:19.226Z,0.8
2017-12-27T05:58:18.934Z,0.6
2017-12-27T06:00:18.726Z,0.8
2017-12-27T06:02:19.474Z,0.6
2017-12-27T06:04:19.182Z,0.8
2017-12-27T06:06:19.439Z,0.7
2017-12-27T06:08:19.177Z,0.4
2017-12-27T06:10:19.351Z,0.7
2017-12-27T06:12:19.095Z,0.4
2017-12-27T06:14:18.835Z,0.7
2017-12-27T06:16:19.213Z,0.7
2017-12-27T06:18:19.029Z,0.6
2017-12-27T06:20:18.793Z,0.5
2017-12-27T06:22:18.517Z,0.6
2017-12-27T06:24:19.227Z,0.4
2017-12-27T06:26:18.812Z,0.5
2017-12-27T06:28:18.517Z,0.8
2017-12-27T06:30:19.219Z,0.8
2017-12-27T06:32:18.985Z,0.4
2017-12-27T06:34:18.729Z,0.7
2017-12-27T06:36:19.140Z,0.4
2017-12-27T06:38:18.869Z,0.5
2017-12-27T06:40:19.092Z,0.5
2017-12-27T06:42:18.833Z,0.5
2017-12-27T06:44:18.558Z,0.9
2017-12-27T06:46:19.379Z,1
2017-12-27T06:48:19.114Z,0.7
2017-12-27T06:50:19.029Z,0.7
2017-12-27T06:52:19.384Z,0.6
2017-12-27T06:54:19.120Z,0.3
2017-12-27T06:56:19.146Z,0.5
2017-12-27T06:58:18.856Z,0.4
2017-12-27T07:00:18.599Z,0.6
2017-12-27T07:02:19.303Z,0.6
2017-12-27T07:04:19.065Z,0.5
2017-12-27T07:06:18.613Z,0.5
2017-12-27T07:08:19.361Z,0.7
2017-12-27T07:10:18.600Z,0.6
2017-12-27T07:12:19.333Z,0.7
2017-12-27T07:14:19.064Z,0.5
2017-12-27T07:16:18.666Z,0.6
2017-12-27T07:18:19.450Z,0.7
2017-12-27T07:20:19.214Z,0.5
2017-12-27T07:22:18.959Z,1.3
2017-12-27T07:24:18.654Z,0.7
2017-12-27T07:26:19.167Z,0.5
2017-12-27T07:28:18.904Z,0.6
2017-12-27T07:30:18.616Z,1
2017-12-27T07:32:19.359Z,0.8
2017-12-27T07:34:19.087Z,0.6
2017-12-27T07:36:18.586Z,1
2017-12-27T07:38:19.317Z,0.7
2017-12-27T07:40:18.458Z,0.7
2017-12-27T07:42:19.187Z,0.8
2017-12-27T07:44:18.914Z,1.3
2017-12-27T07:46:19.433Z,1.3
2017-12-27T07:48:19.156Z,0.8
2017-12-27T07:50:18.909Z,1.5
2017-12-27T07:52:18.681Z,1.2
2017-12-27T07:54:19.407Z,0.9
2017-12-27T07:56:19.397Z,1.2
2017-12-27T07:58:19.119Z,0.8
2017-12-27T08:00:18.833Z,1.2
2017-12-27T08:02:18.601Z,0.9
2017-12-27T08:04:19.332Z,1.5
2017-12-27T08:06:18.868Z,0.8
2017-12-27T08:08:18.612Z,1.4
2017-12-27T08:10:18.797Z,1.1
2017-12-27T08:12:18.499Z,1.5
2017-12-27T08:14:19.251Z,1.1
2017-12-27T08:16:19.323Z,1.1
2017-12-27T08:18:19.106Z,1.9
2017-12-27T08:20:18.832Z,1.4
2017-12-27T08:22:18.574Z,1.7
2017-12-27T08:24:19.315Z,1.8
2017-12-27T08:26:19.000Z,1.9
2017-12-27T08:28:18.711Z,1.8
2017-12-27T08:30:19.486Z,1.7
2017-12-27T08:32:19.189Z,1.6
2017-12-27T08:34:18.892Z,1.7
2017-12-27T08:36:18.971Z,2.2
2017-12-27T08:38:18.685Z,1.5
2017-12-27T08:40:18.877Z,2.5
2017-12-27T08:42:18.621Z,1.9
2017-12-27T08:44:19.318Z,1.4
2017-12-27T08:46:19.444Z,1.7
2017-12-27T08:48:19.212Z,1.5
2017-12-27T08:50:18.922Z,2
2017-12-27T08:52:18.640Z,2.3
2017-12-27T08:54:19.361Z,3
2017-12-27T08:56:18.573Z,1.9
2017-12-27T08:58:19.324Z,2.4
2017-12-27T09:00:19.039Z,2.1
2017-12-27T09:02:18.785Z,1.9
2017-12-27T09:04:18.570Z,2.3
2017-12-27T09:06:18.876Z,1.7
2017-12-27T09:08:18.598Z,2.7
2017-12-27T09:10:18.952Z,2.4
2017-12-27T09:12:18.692Z,2.4
2017-12-27T09:14:19.404Z,1.9
2017-12-27T09:16:19.425Z,2.1
2017-12-27T09:18:19.265Z,2.7
2017-12-27T09:20:19.014Z,2.4
2017-12-27T09:22:18.730Z,1.6
2017-12-27T09:24:18.512Z,2.1
2017-12-27T09:26:18.604Z,2
2017-12-27T09:28:19.367Z,2.2
2017-12-27T09:30:19.128Z,1.8
2017-12-27T09:32:19.199Z,2.3
2017-12-27T09:34:18.899Z,1.9
2017-12-27T09:36:19.146Z,2.3
2017-12-27T09:38:18.878Z,2.1
2017-12-27T09:40:19.089Z,2.5
2017-12-27T09:42:18.809Z,2.4
2017-12-27T09:44:18.553Z,2.4
2017-12-27T09:46:19.039Z,2.6
2017-12-27T09:48:18.793Z,2.4
2017-12-27T09:50:18.509Z,2.3
2017-12-27T09:52:19.242Z,1.5
2017-12-27T09:54:18.977Z,2.3
2017-12-27T09:56:18.591Z,1.6
2017-12-27T09:58:19.303Z,1.6
2017-12-27T10:00:19.056Z,1.6
2017-12-27T10:02:18.789Z,2.4
2017-12-27T10:04:18.532Z,2.7
2017-12-27T10:06:19.094Z,1.5
2017-12-27T10:08:18.832Z,2.3
2017-12-27T10:10:19.071Z,2.4
2017-12-27T10:12:18.782Z,2.4
2017-12-27T10:14:18.497Z,2
2017-12-27T10:16:18.933Z,2.2
2017-12-27T10:18:18.764Z,2
2017-12-27T10:20:18.496Z,1.9
2017-12-27T10:22:19.142Z,1.8
2017-12-27T10:24:18.879Z,2.3
2017-12-27T10:26:19.420Z,2.6
2017-12-27T10:28:19.165Z,1.8
2017-12-27T10:30:18.886Z,2.3
2017-12-27T10:32:18.652Z,2.6
2017-12-27T10:34:19.418Z,1.6
2017-12-27T10:36:19.039Z,1.5
2017-12-27T10:38:18.764Z,2.5
2017-12-27T10:40:19.003Z,2.5
2017-12-27T10:42:18.717Z,1.9
2017-12-27T10:44:19.445Z,2.8
2017-12-27T10:46:18.991Z,2.8
2017-12-27T10:48:18.736Z,2.5
2017-12-27T10:50:18.496Z,2.6
2017-12-27T10:52:19.272Z,2.9
2017-12-27T10:54:19.013Z,3.4
2017-12-27T10:56:18.779Z,2.8
2017-12-27T10:58:18.542Z,2.6
2017-12-27T11:00:19.270Z,2.8
2017-12-27T11:02:18.989Z,3.7
2017-12-27T11:04:18.727Z,2.5
2017-12-27T11:06:18.734Z,2.3
2017-12-27T11:08:19.463Z,2.8
2017-12-27T11:10:18.669Z,3.1
2017-12-27T11:12:19.420Z,3.4
2017-12-27T11:14:19.175Z,3.1
2017-12-27T11:16:19.275Z,3.1
2017-12-27T11:18:19.078Z,3.7
2017-12-27T11:20:18.851Z,3.6
2017-12-27T11:22:18.575Z,3.3
2017-12-27T11:24:19.277Z,2.7
2017-12-27T11:26:18.720Z,3.7
2017-12-27T11:28:19.434Z,2.7
2017-12-27T11:30:19.147Z,3.3
2017-12-27T11:32:18.919Z,3.4
2017-12-27T11:34:18.636Z,3.2
2017-12-27T11:36:19.264Z,3.7
2017-12-27T11:38:19.084Z,3.4
2017-12-27T11:40:19.301Z,2.9
2017-12-27T11:42:19.034Z,2
2017-12-27T11:44:18.775Z,3.2
2017-12-27T11:46:18.631Z,3.5
2017-12-27T11:48:19.402Z,3.1
2017-12-27T11:50:19.183Z,3.6
2017-12-27T11:52:18.944Z,3.1
2017-12-27T11:54:18.673Z,3
2017-12-27T11:56:18.708Z,3.3
2017-12-27T11:58:19.420Z,3.1
2017-12-27T12:00:19.191Z,3.3
2017-12-27T12:02:18.930Z,2.2
2017-12-27T12:04:18.648Z,3.8
2017-12-27T12:06:19.069Z,3.3
2017-12-27T12:08:18.808Z,2.9
2017-12-27T12:10:19.031Z,3.6
2017-12-27T12:12:18.772Z,3
2017-12-27T12:14:18.499Z,3.4
2017-12-27T12:16:19.442Z,3.2
2017-12-27T12:18:19.250Z,3.1
2017-12-27T12:20:18.988Z,2.8
2017-12-27T12:22:18.724Z,2.8
2017-12-27T12:24:19.499Z,2.8
2017-12-27T12:26:19.138Z,3.7
2017-12-27T12:28:18.887Z,3.3
2017-12-27T12:30:18.656Z,3.6
2017-12-27T12:32:19.401Z,2.9
2017-12-27T12:34:19.128Z,3.4
2017-12-27T12:36:18.722Z,3.5
2017-12-27T12:38:19.441Z,3.6
2017-12-27T12:40:18.648Z,3.2
2017-12-27T12:42:19.408Z,3.1
2017-12-27T12:44:19.148Z,2.6
2017-12-27T12:46:18.722Z,2.8
2017-12-27T12:48:19.496Z,3.4
2017-12-27T12:50:19.240Z,2.9
2017-12-27T12:52:18.982Z,3.3
2017-12-27T12:54:18.798Z,3.7
2017-12-27T12:56:19.187Z,2.9
2017-12-27T12:58:18.915Z,3
2017-12-27T13:00:18.692Z,3.4
2017-12-27T13:02:19.486Z,3.3
2017-12-27T13:04:19.229Z,3.1
2017-12-27T13:06:19.265Z,2.8
2017-12-27T13:08:18.995Z,3
2017-12-27T13:10:19.227Z,3.1
2017-12-27T13:12:18.993Z,3.3
2017-12-27T13:14:18.729Z,3.6
2017-12-27T13:16:18.695Z,2.5
2017-12-27T13:18:18.505Z,2.9
2017-12-27T13:20:19.221Z,3.4
2017-12-27T13:22:18.962Z,3.2
2017-12-27T13:24:18.727Z,3.4
2017-12-27T13:26:18.728Z,3
2017-12-27T13:28:19.465Z,3.3
2017-12-27T13:30:19.199Z,3.1
2017-12-27T13:32:18.917Z,3.6
2017-12-27T13:34:18.638Z,3.3
2017-12-27T13:36:18.677Z,2.9
2017-12-27T13:38:19.430Z,3
2017-12-27T13:40:18.660Z,2.7
2017-12-27T13:42:19.441Z,3
2017-12-27T13:44:19.238Z,2.7
2017-12-27T13:46:18.749Z,2.6
2017-12-27T13:48:18.511Z,3.3
2017-12-27T13:50:19.299Z,3.3
2017-12-27T13:52:19.036Z,2.6
2017-12-27T13:54:18.807Z,1.9
2017-12-27T13:56:18.831Z,3.2
2017-12-27T13:58:18.567Z,2.4
2017-12-27T14:00:19.284Z,2.5
2017-12-27T14:02:19.039Z,3.1
2017-12-27T14:04:18.768Z,3.3
2017-12-27T14:06:19.163Z,3.3
2017-12-27T14:08:18.921Z,2.8
2017-12-27T14:10:19.098Z,2.4
2017-12-27T14:12:18.825Z,3.7
2017-12-27T14:14:18.561Z,3.1
2017-12-27T14:16:18.716Z,2.6
2017-12-27T14:18:18.541Z,2.9
2017-12-27T14:20:19.278Z,2.9
2017-12-27T14:22:19.039Z,2.6
2017-12-27T14:24:18.820Z,3.7
2017-12-27T14:26:19.476Z,2.7
2017-12-27T14:28:19.241Z,2.7
2017-12-27T14:30:19.080Z,3.4
2017-12-27T14:32:18.807Z,2.8
2017-12-27T14:34:18.566Z,3.5
2017-12-27T14:36:19.244Z,2.4
2017-12-27T14:38:18.946Z,3.1
2017-12-27T14:40:19.181Z,3.1
2017-12-27T14:42:19.266Z,2.5
2017-12-27T14:44:18.978Z,3.9
2017-12-27T14:46:18.601Z,2.8
2017-12-27T14:48:19.332Z,2.7
2017-12-27T14:50:19.100Z,3.3
2017-12-27T14:52:18.650Z,3.5
2017-12-27T14:54:19.361Z,2.9
2017-12-27T14:56:19.418Z,2.3
2017-12-27T14:58:19.137Z,3.2
2017-12-27T15:00:18.885Z,3.5
2017-12-27T15:02:18.664Z,3
2017-12-27T15:04:19.400Z,2.7
2017-12-27T15:06:19.032Z,3.4
2017-12-27T15:08:18.802Z,3.2
2017-12-27T15:10:18.998Z,2.6
2017-12-27T15:12:18.717Z,2.9
2017-12-27T15:14:19.456Z,2.9
2017-12-27T15:16:18.973Z,3.3
2017-12-27T15:18:18.817Z,3.2
2017-12-27T15:20:18.539Z,3
2017-12-27T15:22:19.262Z,3.1
2017-12-27T15:24:19.040Z,2.7
2017-12-27T15:26:19.081Z,3.8
2017-12-27T15:28:18.801Z,3.7
2017-12-27T15:30:18.543Z,2.8
2017-12-27T15:32:19.093Z,3.6
2017-12-27T15:34:18.866Z,3.3
2017-12-27T15:36:19.006Z,2.7
2017-12-27T15:38:18.738Z,3.2
2017-12-27T15:40:18.948Z,2.6
2017-12-27T15:42:19.018Z,2.5
2017-12-27T15:44:18.730Z,3.1
2017-12-27T15:46:18.824Z,3.3
2017-12-27T15:48:18.619Z,2.9
2017-12-27T15:50:19.366Z,2.8
2017-12-27T15:52:19.087Z,3.7
2017-12-27T15:54:18.850Z,3.8
2017-12-27T15:56:18.904Z,3.1
2017-12-27T15:58:18.627Z,3.3
2017-12-27T16:00:19.369Z,4.6
2017-12-27T16:02:19.084Z,3.7
2017-12-27T16:04:18.801Z,3.6
2017-12-27T16:06:18.522Z,3.5
2017-12-27T16:08:19.274Z,3.3
2017-12-27T16:10:19.486Z,3.7
2017-12-27T16:12:19.228Z,3.5
2017-12-27T16:14:18.972Z,3.4
2017-12-27T16:16:19.389Z,3.7
2017-12-27T16:18:19.192Z,4.1
2017-12-27T16:20:18.978Z,3.6
2017-12-27T16:22:18.736Z,3.3
2017-12-27T16:24:19.446Z,4.8
2017-12-27T16:26:19.436Z,4.3
2017-12-27T16:28:19.188Z,3.8
2017-12-27T16:30:18.928Z,3.2
2017-12-27T16:32:18.645Z,4.1
2017-12-27T16:34:19.399Z,4.2
2017-12-27T16:36:18.731Z,4.1
2017-12-27T16:38:19.460Z,3.5
2017-12-27T16:40:18.699Z,3.8
2017-12-27T16:42:19.439Z,4.3
2017-12-27T16:44:19.162Z,3.8
2017-12-27T16:46:18.831Z,5.1
2017-12-27T16:48:18.574Z,3.8
2017-12-27T16:50:19.321Z,4.8
2017-12-27T16:52:18.920Z,4.7
2017-12-27T16:54:18.696Z,4.1
2017-12-27T16:56:19.206Z,4.6
2017-12-27T16:58:18.903Z,4.9
2017-12-27T17:00:18.604Z,4.6
2017-12-27T17:02:19.337Z,4.8
2017-12-27T17:04:19.058Z,4.2
2017-12-27T17:06:18.557Z,4.8
2017-12-27T17:08:19.288Z,5.2
2017-12-27T17:10:19.500Z,5.1
2017-12-27T17:12:19.241Z,4.3
2017-12-27T17:14:19.012Z,4.6
2017-12-27T17:16:19.017Z,4.4
2017-12-27T17:18:18.820Z,4.3
2017-12-27T17:20:18.578Z,4.8
2017-12-27T17:22:19.112Z,4.3
2017-12-27T17:24:18.897Z,4.6
2017-12-27T17:26:19.091Z,5.3
2017-12-27T17:28:18.815Z,4.8
2017-12-27T17:30:18.548Z,5.4
2017-12-27T17:32:19.217Z,4.5
2017-12-27T17:34:18.941Z,4.9
2017-12-27T17:36:19.029Z,5
2017-12-27T17:38:18.801Z,5.6
2017-12-27T17:40:19.012Z,6.3
2017-12-27T17:42:18.744Z,4.4
2017-12-27T17:44:18.488Z,5
2017-12-27T17:46:18.509Z,5
2017-12-27T17:48:19.263Z,4.5
2017-12-27T17:50:19.012Z,5.9
2017-12-27T17:52:18.736Z,5.3
2017-12-27T17:54:19.495Z,5.9
2017-12-27T17:56:18.957Z,5
2017-12-27T17:58:18.686Z,4.8
2017-12-27T18:00:19.446Z,6.2
2017-12-27T18:02:18.528Z,6.5
2017-12-27T18:04:19.247Z,5.1
2017-12-27T18:06:18.523Z,5.9
2017-12-27T18:08:19.251Z,6.1
2017-12-27T18:10:18.510Z,6.3
2017-12-27T18:12:19.206Z,5.9
2017-12-27T18:14:18.929Z,5.9
2017-12-27T18:16:19.292Z,6.3
2017-12-27T18:18:19.123Z,5.7
2017-12-27T18:20:18.845Z,5.6
2017-12-27T18:22:18.597Z,5.9
2017-12-27T18:24:19.329Z,6.2
2017-12-27T18:26:18.812Z,4.4
2017-12-27T18:28:18.531Z,5.9
2017-12-27T18:30:19.268Z,5.2
2017-12-27T18:32:19.005Z,5.1
2017-12-27T18:34:18.751Z,5.8
2017-12-27T18:36:18.969Z,4.3
2017-12-27T18:38:18.727Z,5.4
2017-12-27T18:40:18.989Z,4.3
2017-12-27T18:42:18.720Z,6.2
2017-12-27T18:44:19.448Z,5.2
2017-12-27T18:46:19.443Z,4.7
2017-12-27T18:48:19.154Z,4.5
2017-12-27T18:50:18.958Z,4.9
2017-12-27T18:52:18.729Z,6.1
2017-12-27T18:54:19.449Z,4.7
2017-12-27T18:56:18.987Z,5.8
2017-12-27T18:58:18.741Z,5.6
2017-12-27T19:00:19.456Z,5.7
2017-12-27T19:02:19.167Z,5.4
2017-12-27T19:04:18.938Z,5.7
2017-12-27T19:06:18.977Z,6.8
2017-12-27T19:08:18.693Z,6.8
2017-12-27T19:10:18.924Z,4.6
2017-12-27T19:12:19.441Z,5.7
2017-12-27T19:14:19.186Z,6.5
2017-12-27T19:16:18.706Z,5.3
2017-12-27T19:18:18.526Z,5.7
2017-12-27T19:20:19.283Z,4.9
2017-12-27T19:22:19.082Z,5.5
2017-12-27T19:24:18.810Z,5.1
2017-12-27T19:26:19.259Z,6.5
2017-12-27T19:28:19.084Z,6.3
2017-12-27T19:30:18.981Z,5.5
2017-12-27T19:32:18.705Z,5.5
2017-12-27T19:34:19.491Z,6
2017-12-27T19:36:18.500Z,6.9
2017-12-27T19:38:19.208Z,6.7
2017-12-27T19:40:19.402Z,5.4
2017-12-27T19:42:19.114Z,6
2017-12-27T19:44:18.829Z,5.5
2017-12-27T19:46:19.045Z,6.4
2017-12-27T19:48:18.806Z,5.9
2017-12-27T19:50:18.568Z,5.9
2017-12-27T19:52:18.624Z,6.4
2017-12-27T19:54:19.358Z,6.5
2017-12-27T19:56:18.826Z,6.8
2017-12-27T19:58:18.543Z,6.4
2017-12-27T20:00:19.269Z,6
2017-12-27T20:02:19.036Z,6.1
2017-12-27T20:04:18.783Z,6.3
2017-12-27T20:06:19.428Z,5.8
2017-12-27T20:08:19.169Z,5.9
2017-12-27T20:10:19.354Z,6.6
2017-12-27T20:12:19.083Z,6.6
2017-12-27T20:14:18.837Z,6.4
2017-12-27T20:16:18.542Z,6.3
2017-12-27T20:18:19.350Z,5.4
2017-12-27T20:20:19.079Z,6.3
2017-12-27T20:22:18.805Z,6
2017-12-27T20:24:18.542Z,6.3
2017-12-27T20:26:18.575Z,5.9
2017-12-27T20:28:19.299Z,6.4
2017-12-27T20:30:19.062Z,6.4
2017-12-27T20:32:18.640Z,6.3
2017-12-27T20:34:19.388Z,7.1
2017-12-27T20:36:18.632Z,7.1
2017-12-27T20:38:19.374Z,6.2
2017-12-27T20:40:18.576Z,6
2017-12-27T20:42:19.319Z,6.2
2017-12-27T20:44:19.053Z,5.2
2017-12-27T20:46:19.052Z,5.8
2017-12-27T20:48:18.816Z,6.6
2017-12-27T20:50:18.524Z,5.5
2017-12-27T20:52:19.252Z,7.6
2017-12-27T20:54:18.987Z,7.2
2017-12-27T20:56:19.163Z,5.7
2017-12-27T20:58:18.902Z,6.2
2017-12-27T21:00:18.630Z,6
2017-12-27T21:02:19.347Z,6.9
2017-12-27T21:04:19.075Z,7.6
2017-12-27T21:06:18.801Z,6.7
2017-12-27T21:08:18.541Z,6.5
2017-12-27T21:10:18.904Z,5
2017-12-27T21:12:18.647Z,6.4
2017-12-27T21:14:19.370Z,6.3
2017-12-27T21:16:19.431Z,6.7
2017-12-27T21:18:19.280Z,6.2
2017-12-27T21:20:19.003Z,5.3
2017-12-27T21:22:18.768Z,6.1
2017-12-27T21:24:18.508Z,6.8
2017-12-27T21:26:19.038Z,6.1
2017-12-27T21:28:18.792Z,6.7
2017-12-27T21:30:18.580Z,6
2017-12-27T21:32:19.338Z,6.3
2017-12-27T21:34:19.037Z,5.9
2017-12-27T21:36:19.460Z,6.2
2017-12-27T21:38:19.195Z,6
2017-12-27T21:40:19.424Z,6.8
2017-12-27T21:42:19.167Z,5.5
2017-12-27T21:44:18.851Z,6.4
2017-12-27T21:46:19.298Z,6.6
2017-12-27T21:48:19.054Z,6.7
2017-12-27T21:50:18.838Z,6.7
2017-12-27T21:52:18.541Z,7
2017-12-27T21:54:19.313Z,6.6
2017-12-27T21:56:18.788Z,6.5
2017-12-27T21:58:18.509Z,6
2017-12-27T22:00:19.221Z,6.4
2017-12-27T22:02:18.889Z,6.1
2017-12-27T22:04:18.615Z,6.9
2017-12-27T22:06:18.683Z,6.2
2017-12-27T22:08:19.395Z,6.2
2017-12-27T22:10:18.642Z,7.1
2017-12-27T22:12:18.640Z,7.2
2017-12-27T22:14:19.344Z,6.1
2017-12-27T22:16:18.713Z,6.2
2017-12-27T22:18:18.501Z,6.7
2017-12-27T22:20:19.232Z,6.3
2017-12-27T22:22:18.967Z,6.8
2017-12-27T22:24:18.672Z,6.8
2017-12-27T22:26:19.220Z,7.4
2017-12-27T22:28:18.931Z,6.9
2017-12-27T22:30:18.642Z,7.1
2017-12-27T22:32:18.698Z,7.5
2017-12-27T22:34:19.400Z,5.2
2017-12-27T22:36:19.402Z,6
2017-12-27T22:38:19.153Z,6.2
2017-12-27T22:40:19.332Z,6.1
2017-12-27T22:42:19.084Z,6.5
2017-12-27T22:44:18.834Z,6.1
2017-12-27T22:46:19.197Z,6.9
2017-12-27T22:48:18.939Z,5.9
2017-12-27T22:50:18.669Z,6.1
2017-12-27T22:52:19.407Z,6.8
2017-12-27T22:54:19.141Z,5.9
2017-12-27T22:56:19.415Z,6.4
2017-12-27T22:58:19.180Z,7
2017-12-27T23:00:18.923Z,6.2
2017-12-27T23:02:18.649Z,7.1
2017-12-27T23:04:19.405Z,7
2017-12-27T23:06:18.635Z,7.6
2017-12-27T23:08:19.384Z,6.2
2017-12-27T23:10:18.720Z,6.8
2017-12-27T23:12:19.486Z,6.1
2017-12-27T23:14:19.219Z,6.3
2017-12-27T23:16:18.770Z,6.4
2017-12-27T23:18:18.616Z,6
2017-12-27T23:20:19.329Z,6.5
2017-12-27T23:22:18.529Z,6
2017-12-27T23:24:19.282Z,6.5
2017-12-27T23:26:19.476Z,6.7
2017-12-27T23:28:19.247Z,6
2017-12-27T23:30:18.986Z,7.4
2017-12-27T23:32:18.698Z,6.7
2017-12-27T23:34:19.406Z,6.3
2017-12-27T23:36:19.458Z,6.1
2017-12-27T23:38:19.163Z,6.5
2017-12-27T23:40:19.380Z,6
2017-12-27T23:42:18.966Z,6.8
2017-12-27T23:44:18.705Z,6.5
2017-12-27T23:46:18.749Z,6
2017-12-27T23:48:18.484Z,6.3
2017-12-27T23:50:19.230Z,6.5
2017-12-27T23:52:18.977Z,6.5
2017-12-27T23:54:18.694Z,6.4
2017-12-27T23:56:18.860Z,5.8
2017-12-27T23:58:18.629Z,6.5
